Time;durP1;ratioP1;P1;durP2;ratioP2;P2;SDS_P1;SDS_P2;PMS_P1;PMS_P2;Temp;Humidity;BMP_temperature;BMP_pressure;BME280_temperature;BME280_humidity;BME280_pressure;Samples;Min_cycle;Max_cycle;Signal;HPM_P1;HPM_P2
2024/03/24 00:04:34;;;;;;;;;35.50;31.75;;;;;;;;6489969;46;8925;-57
2024/03/24 00:10:35;;;;;;;;;31.00;30.00;;;;;;;;6491022;39;8925;-59
2024/03/24 00:16:37;;;;;;;;;26.00;22.25;;;;;;;;6491313;39;8888;-55
2024/03/24 00:22:38;;;;;;;;;23.00;22.25;;;;;;;;6491066;39;8907;-57
2024/03/24 00:28:38;;;;;;;;;28.25;26.50;;;;;;;;6491417;39;8905;-59
2024/03/24 00:34:39;;;;;;;;;22.50;22.50;;;;;;;;6490706;46;8876;-56
2024/03/24 00:40:41;;;;;;;;;23.50;21.50;;;;;;;;6534431;36;8985;-58
2024/03/24 00:46:43;;;;;;;;;18.75;17.50;;;;;;;;6487907;31;9021;-57
2024/03/24 00:52:44;;;;;;;;;29.00;25.00;;;;;;;;6534599;36;8908;-57
2024/03/24 00:58:46;;;;;;;;;27.25;24.00;;;;;;;;6487412;39;9006;-57
2024/03/24 01:04:48;;;;;;;;;22.00;17.75;;;;;;;;6487412;46;9025;-56
2024/03/24 01:10:48;;;;;;;;;21.50;21.50;;;;;;;;6487771;39;8909;-57
2024/03/24 01:16:53;;;;;;;;;21.75;20.50;;;;;;;;6489267;39;8951;-58
2024/03/24 01:22:59;;;;;;;;;19.75;19.25;;;;;;;;6491060;31;8895;-57
2024/03/24 01:29:01;;;;;;;;;17.75;17.00;;;;;;;;6490229;39;8907;-57
2024/03/24 01:35:03;;;;;;;;;20.50;19.25;;;;;;;;6490703;31;9002;-56
2024/03/24 01:41:05;;;;;;;;;24.75;19.75;;;;;;;;6489809;47;8915;-58
2024/03/24 01:47:09;;;;;;;;;28.50;22.25;;;;;;;;6489903;47;8892;-58
2024/03/24 01:53:10;;;;;;;;;26.00;22.25;;;;;;;;6491072;46;8962;-56
2024/03/24 01:59:13;;;;;;;;;23.75;23.75;;;;;;;;6491241;46;8995;-57
2024/03/24 02:05:25;;;;;;;;;25.25;21.75;;;;;;;;6492267;39;8939;-57
2024/03/24 02:11:28;;;;;;;;;20.00;16.00;;;;;;;;6491865;31;8994;-57
2024/03/24 02:17:30;;;;;;;;;22.00;19.75;;;;;;;;6492266;39;8857;-57
2024/03/24 02:23:32;;;;;;;;;27.00;23.75;;;;;;;;6491643;39;8851;-56
2024/03/24 02:29:34;;;;;;;;;23.00;22.00;;;;;;;;6491810;39;8884;-56
2024/03/24 02:35:40;;;;;;;;;21.00;21.00;;;;;;;;6492675;39;9484;-56
2024/03/24 02:41:42;;;;;;;;;29.50;23.75;;;;;;;;6492480;39;8888;-57
2024/03/24 02:47:45;;;;;;;;;24.50;23.50;;;;;;;;6491164;39;8880;-57
2024/03/24 02:53:47;;;;;;;;;26.50;23.75;;;;;;;;6491825;39;8876;-55
2024/03/24 02:59:48;;;;;;;;;29.50;29.00;;;;;;;;6491155;39;8951;-56
2024/03/24 03:05:52;;;;;;;;;29.00;25.00;;;;;;;;6492251;39;8926;-57
2024/03/24 03:11:56;;;;;;;;;27.75;25.75;;;;;;;;6491177;39;8987;-57
2024/03/24 03:18:09;;;;;;;;;22.50;20.00;;;;;;;;6491418;39;9518;-56
2024/03/24 03:24:19;;;;;;;;;26.50;23.50;;;;;;;;6490999;46;8876;-58
2024/03/24 03:30:22;;;;;;;;;20.25;20.25;;;;;;;;6491419;46;8871;-57
2024/03/24 03:36:24;;;;;;;;;30.00;26.00;;;;;;;;6491032;39;9010;-56
2024/03/24 03:42:26;;;;;;;;;34.25;27.25;;;;;;;;6490772;39;8875;-56
2024/03/24 03:48:28;;;;;;;;;29.75;26.00;;;;;;;;6490874;39;8896;-57
2024/03/24 03:54:31;;;;;;;;;26.50;23.75;;;;;;;;6491374;31;8907;-54
2024/03/24 04:00:32;;;;;;;;;27.25;25.50;;;;;;;;6490766;46;8951;-57
2024/03/24 04:06:33;;;;;;;;;30.00;27.75;;;;;;;;6490720;46;9027;-55
2024/03/24 04:12:37;;;;;;;;;26.75;23.50;;;;;;;;6491078;39;8918;-56
2024/03/24 04:18:38;;;;;;;;;24.25;23.75;;;;;;;;6491359;31;9023;-56
2024/03/24 04:24:39;;;;;;;;;24.75;22.25;;;;;;;;6490024;46;8868;-52
2024/03/24 04:30:41;;;;;;;;;33.25;27.25;;;;;;;;6490903;39;8884;-56
2024/03/24 04:36:43;;;;;;;;;29.75;28.50;;;;;;;;6490325;39;8970;-57
2024/03/24 04:42:46;;;;;;;;;23.50;23.50;;;;;;;;6490241;39;8922;-56
2024/03/24 04:48:48;;;;;;;;;21.00;20.25;;;;;;;;6491149;39;8907;-56
2024/03/24 04:54:52;;;;;;;;;21.75;21.75;;;;;;;;6490549;46;8888;-56
2024/03/24 05:00:54;;;;;;;;;26.25;21.50;;;;;;;;6491574;39;8939;-56
2024/03/24 05:06:59;;;;;;;;;24.00;22.25;;;;;;;;6490123;31;8928;-56
2024/03/24 05:13:01;;;;;;;;;22.25;20.25;;;;;;;;6490882;39;8860;-57
2024/03/24 05:19:05;;;;;;;;;24.50;20.50;;;;;;;;6489961;39;9062;-57
2024/03/24 05:25:06;;;;;;;;;22.50;21.25;;;;;;;;6489835;39;8860;-57
2024/03/24 05:31:08;;;;;;;;;27.75;25.50;;;;;;;;6490461;39;8888;-56
2024/03/24 05:37:10;;;;;;;;;23.00;18.25;;;;;;;;6489387;39;8915;-56
2024/03/24 05:43:14;;;;;;;;;18.00;18.00;;;;;;;;6489591;39;8860;-56
2024/03/24 05:49:15;;;;;;;;;22.25;21.25;;;;;;;;6489900;39;9003;-55
2024/03/24 05:55:19;;;;;;;;;23.50;21.00;;;;;;;;6489767;39;9464;-58
2024/03/24 06:01:23;;;;;;;;;20.00;20.00;;;;;;;;6489819;31;8990;-58
2024/03/24 06:07:27;;;;;;;;;17.25;17.25;;;;;;;;6491271;31;9917;-57
2024/03/24 06:13:30;;;;;;;;;19.25;19.25;;;;;;;;6489991;39;8895;-57
2024/03/24 06:19:31;;;;;;;;;18.50;18.25;;;;;;;;6489121;39;8970;-57
2024/03/24 06:25:33;;;;;;;;;20.25;19.00;;;;;;;;6488550;39;8907;-57
2024/03/24 06:31:36;;;;;;;;;21.75;18.00;;;;;;;;6490199;31;8911;-57
2024/03/24 06:37:39;;;;;;;;;18.75;18.75;;;;;;;;6491268;39;8987;-59
2024/03/24 06:43:43;;;;;;;;;22.00;19.50;;;;;;;;6491744;39;8881;-58
2024/03/24 06:49:47;;;;;;;;;19.25;19.25;;;;;;;;6491700;46;8855;-59
2024/03/24 06:55:51;;;;;;;;;26.00;23.25;;;;;;;;6492184;31;8931;-57
2024/03/24 07:01:53;;;;;;;;;27.00;24.75;;;;;;;;6491650;46;8962;-58
2024/03/24 07:07:55;;;;;;;;;30.00;25.00;;;;;;;;6491574;39;8935;-56
2024/03/24 07:13:56;;;;;;;;;28.25;28.25;;;;;;;;6491559;39;8879;-57
2024/03/24 07:19:58;;;;;;;;;32.00;29.75;;;;;;;;6491899;46;8919;-57
2024/03/24 07:26:05;;;;;;;;;31.00;28.75;;;;;;;;6490837;46;8879;-57
2024/03/24 07:32:07;;;;;;;;;30.25;30.00;;;;;;;;6490041;46;8879;-56
2024/03/24 07:38:13;;;;;;;;;32.50;30.75;;;;;;;;6490936;39;8879;-57
2024/03/24 07:44:14;;;;;;;;;39.00;33.50;;;;;;;;6490656;39;8891;-57
2024/03/24 07:50:22;;;;;;;;;33.75;31.50;;;;;;;;6490461;39;8886;-57
2024/03/24 07:56:23;;;;;;;;;33.50;31.75;;;;;;;;6490684;46;9006;-54
2024/03/24 08:02:24;;;;;;;;;28.50;26.50;;;;;;;;6491387;46;8923;-57
2024/03/24 08:08:29;;;;;;;;;30.50;26.75;;;;;;;;6491444;39;9702;-57
2024/03/24 08:14:31;;;;;;;;;30.25;29.00;;;;;;;;6491457;39;8856;-57
2024/03/24 08:20:33;;;;;;;;;34.25;33.00;;;;;;;;6491893;31;8898;-57
2024/03/24 08:26:36;;;;;;;;;32.00;29.75;;;;;;;;6490365;39;9566;-57
2024/03/24 08:32:37;;;;;;;;;20.25;20.25;;;;;;;;6490492;31;8915;-57
2024/03/24 08:38:40;;;;;;;;;29.33;27.67;;;;;;;;6490176;31;9110;-58
2024/03/24 08:44:43;;;;;;;;;27.67;27.00;;;;;;;;6491006;39;8851;-60
2024/03/24 08:50:46;;;;;;;;;17.25;17.25;;;;;;;;6490705;39;9606;-57
2024/03/24 08:56:48;;;;;;;;;28.75;26.00;;;;;;;;6489830;39;8911;-57
2024/03/24 09:02:54;;;;;;;;;29.33;27.00;;;;;;;;6490464;31;8931;-58
2024/03/24 09:08:56;;;;;;;;;32.33;31.00;;;;;;;;6490595;39;8918;-59
2024/03/24 09:14:57;;;;;;;;;26.67;26.00;;;;;;;;6490185;46;8879;-57
2024/03/24 09:21:10;;;;;;;;;32.67;26.00;;;;;;;;6490043;47;8934;-58
2024/03/24 09:27:14;;;;;;;;;26.33;25.33;;;;;;;;6490468;31;8903;-57
2024/03/24 09:33:14;;;;;;;;;29.67;25.67;;;;;;;;6490340;39;8887;-58
2024/03/24 09:39:15;;;;;;;;;30.67;28.67;;;;;;;;6492718;36;8918;-58
2024/03/24 09:45:33;;;;;;;;;29.00;28.67;;;;;;;;6490294;39;8851;-57
2024/03/24 09:51:36;;;;;;;;;26.00;21.67;;;;;;;;6490764;39;8963;-58
2024/03/24 09:57:39;;;;;;;;;28.67;27.00;;;;;;;;6489272;39;9555;-59
2024/03/24 10:03:42;;;;;;;;;25.67;21.00;;;;;;;;6490291;39;8941;-58
2024/03/24 10:09:44;;;;;;;;;29.33;25.33;;;;;;;;6489357;31;8845;-58
2024/03/24 10:15:45;;;;;;;;;31.33;29.67;;;;;;;;6491789;39;8877;-59
2024/03/24 10:21:47;;;;;;;;;30.33;28.67;;;;;;;;6491582;31;8925;-57
2024/03/24 10:27:50;;;;;;;;;35.67;27.33;;;;;;;;6491541;31;8849;-57
2024/03/24 10:33:52;;;;;;;;;40.33;34.33;;;;;;;;6490991;46;8996;-58
2024/03/24 10:39:54;;;;;;;;;29.00;29.00;;;;;;;;6491543;39;8913;-59
2024/03/24 10:45:58;;;;;;;;;29.33;27.67;;;;;;;;6491844;39;8893;-59
2024/03/24 10:52:04;;;;;;;;;35.33;34.00;;;;;;;;6491288;39;8961;-57
2024/03/24 10:58:07;;;;;;;;;35.33;31.67;;;;;;;;6491240;31;8917;-58
2024/03/24 11:04:13;;;;;;;;;31.00;29.00;;;;;;;;6492040;39;8940;-58
2024/03/24 11:10:15;;;;;;;;;33.33;29.67;;;;;;;;6491148;39;8960;-59
2024/03/24 11:16:19;;;;;;;;;26.33;25.33;;;;;;;;6491716;39;8853;-61
2024/03/24 11:22:34;;;;;;;;;26.67;21.67;;;;;;;;6491366;39;8904;-60
2024/03/24 11:28:42;;;;;;;;;17.67;15.67;;;;;;;;6491056;39;8980;-59
2024/03/24 11:34:59;;;;;;;;;20.00;18.00;;;;;;;;6490399;46;9059;-58
2024/03/24 11:41:02;;;;;;;;;25.33;23.00;;;;;;;;6491320;39;9076;-59
2024/03/24 11:47:04;;;;;;;;;29.33;25.00;;;;;;;;6490961;46;8889;-59
2024/03/24 11:53:06;;;;;;;;;26.33;26.33;;;;;;;;6490976;39;9620;-58
2024/03/24 11:59:10;;;;;;;;;23.67;19.67;;;;;;;;6491633;31;9020;-60
2024/03/24 12:05:12;;;;;;;;;20.67;19.67;;;;;;;;6490996;39;8913;-60
2024/03/24 12:11:21;;;;;;;;;19.00;18.00;;;;;;;;6489643;46;8889;-59
2024/03/24 12:17:24;;;;;;;;;23.00;19.00;;;;;;;;6489597;46;8909;-58
2024/03/24 12:23:27;;;;;;;;;22.33;21.33;;;;;;;;6489736;31;8881;-58
2024/03/24 12:29:28;;;;;;;;;27.67;24.33;;;;;;;;6490525;39;8865;-57
2024/03/24 12:35:29;;;;;;;;;23.67;22.33;;;;;;;;6491131;39;8877;-57
2024/03/24 12:41:32;;;;;;;;;28.00;25.33;;;;;;;;6490738;39;8909;-59
2024/03/24 12:47:33;;;;;;;;;19.33;19.00;;;;;;;;6490724;39;8897;-59
2024/03/24 12:53:44;;;;;;;;;20.33;18.00;;;;;;;;6490782;39;9632;-57
2024/03/24 12:59:55;;;;;;;;;14.75;14.75;;;;;;;;6490254;39;9075;-57
2024/03/24 13:05:59;;;;;;;;;22.00;17.33;;;;;;;;6490236;31;9513;-57
2024/03/24 13:12:00;;;;;;;;;19.00;19.00;;;;;;;;6490090;46;8997;-58
2024/03/24 13:18:10;;;;;;;;;23.50;20.75;;;;;;;;6491383;39;9698;-59
2024/03/24 13:24:15;;;;;;;;;24.33;23.33;;;;;;;;6489978;39;8881;-59
2024/03/24 13:30:16;;;;;;;;;19.00;18.00;;;;;;;;6490223;39;8913;-58
2024/03/24 13:36:52;;;;;;;;;16.75;16.75;;;;;;;;6489886;46;8877;-58
2024/03/24 13:43:12;;;;;;;;;21.00;18.67;;;;;;;;6490655;39;8849;-58
2024/03/24 13:49:13;;;;;;;;;17.25;16.75;;;;;;;;6491514;39;8833;-58
2024/03/24 13:55:16;;;;;;;;;22.25;19.00;;;;;;;;6491633;39;9674;-59
2024/03/24 14:01:21;;;;;;;;;18.00;16.50;;;;;;;;6491218;39;9641;-58
2024/03/24 14:07:23;;;;;;;;;19.67;18.33;;;;;;;;6491976;31;8917;-58
2024/03/24 14:13:40;;;;;;;;;19.00;18.00;;;;;;;;6491885;39;8881;-58
2024/03/24 14:19:44;;;;;;;;;20.50;19.00;;;;;;;;6491193;39;8980;-59
2024/03/24 14:25:54;;;;;;;;;16.00;16.00;;;;;;;;6490832;46;8881;-58
2024/03/24 14:31:56;;;;;;;;;21.67;19.33;;;;;;;;6491590;31;8853;-58
2024/03/24 14:38:03;;;;;;;;;7.00;7.00;;;;;;;;6492233;31;8956;-59
2024/03/24 14:44:10;;;;;;;;;14.00;14.00;;;;;;;;6492070;31;8960;-58
2024/03/24 14:50:13;;;;;;;;;14.00;14.00;;;;;;;;6492325;39;8873;-58
2024/03/24 14:56:14;;;;;;;;;16.00;15.00;;;;;;;;6490217;39;8877;-58
2024/03/24 15:02:17;;;;;;;;;15.67;15.67;;;;;;;;6491682;31;9001;-59
2024/03/24 15:08:18;;;;;;;;;18.00;14.33;;;;;;;;6491429;46;8885;-58
2024/03/24 15:14:20;;;;;;;;;19.00;18.00;;;;;;;;6491297;39;8882;-59
2024/03/24 15:20:25;;;;;;;;;15.00;14.33;;;;;;;;6490454;46;8960;-58
2024/03/24 15:26:27;;;;;;;;;19.67;16.67;;;;;;;;6491420;39;8896;-59
2024/03/24 15:32:28;;;;;;;;;17.00;15.00;;;;;;;;6491117;46;8876;-57
2024/03/24 15:38:34;;;;;;;;;20.00;18.00;;;;;;;;6491390;31;9044;-59
2024/03/24 15:44:35;;;;;;;;;85.67;75.33;;;;;;;;6491005;39;8881;-58
2024/03/24 15:50:38;;;;;;;;;32.67;32.00;;;;;;;;6490675;39;8869;-58
2024/03/24 15:56:41;;;;;;;;;34.33;31.00;;;;;;;;6490042;39;8969;-61
2024/03/24 16:02:44;;;;;;;;;27.33;25.00;;;;;;;;6488849;46;9020;-58
2024/03/24 16:08:50;;;;;;;;;67.50;53.25;;;;;;;;6490194;31;8893;-58
2024/03/24 16:14:52;;;;;;;;;67.25;55.00;;;;;;;;6490520;39;8893;-58
2024/03/24 16:21:01;;;;;;;;;140.50;125.25;;;;;;;;6490926;31;8996;-58
2024/03/24 16:27:04;;;;;;;;;334.00;293.75;;;;;;;;6491255;39;8972;-58
2024/03/24 16:33:15;;;;;;;;;102.50;90.75;;;;;;;;6491023;39;8877;-58
2024/03/24 16:39:18;;;;;;;;;125.67;114.67;;;;;;;;6490635;39;8853;-62
2024/03/24 16:45:19;;;;;;;;;117.00;104.00;;;;;;;;6490475;39;8866;-58
2024/03/24 16:51:22;;;;;;;;;95.75;87.00;;;;;;;;6490203;31;8886;-60
2024/03/24 16:57:26;;;;;;;;;303.00;269.00;;;;;;;;6490551;39;8920;-59
2024/03/24 17:03:28;;;;;;;;;297.75;244.50;;;;;;;;6310013;39;10001244;-60
2024/03/24 17:09:32;;;;;;;;;74.00;59.50;;;;;;;;6491325;39;8941;-60
2024/03/24 17:15:33;;;;;;;;;90.00;80.25;;;;;;;;6490510;31;9024;-58
2024/03/24 17:21:34;;;;;;;;;83.00;71.50;;;;;;;;6489845;39;8881;-58
2024/03/24 17:27:36;;;;;;;;;29.00;25.33;;;;;;;;6490594;39;8984;-60
2024/03/24 17:33:37;;;;;;;;;29.67;28.67;;;;;;;;6489113;47;9027;-58
2024/03/24 17:39:38;;;;;;;;;42.00;38.00;;;;;;;;6489467;39;8947;-58
2024/03/24 17:45:40;;;;;;;;;63.25;50.25;;;;;;;;6489337;31;9144;-57
2024/03/24 17:51:42;;;;;;;;;29.67;27.00;;;;;;;;6489455;31;9016;-58
2024/03/24 17:57:45;;;;;;;;;20.67;20.67;;;;;;;;6490396;39;9006;-58
2024/03/24 18:03:47;;;;;;;;;34.33;31.00;;;;;;;;6489620;47;9001;-56
2024/03/24 18:16:08;;;;;;;;;32.67;31.00;;;;;;;;6489264;47;8980;-60
2024/03/24 18:22:10;;;;;;;;;36.33;30.00;;;;;;;;6489337;46;8958;-58
2024/03/24 18:28:13;;;;;;;;;27.00;26.00;;;;;;;;6489880;31;8885;-60
2024/03/24 18:34:15;;;;;;;;;33.67;31.33;;;;;;;;6491245;31;8995;-58
2024/03/24 18:40:18;;;;;;;;;27.67;26.00;;;;;;;;6491175;46;8898;-58
2024/03/24 18:46:22;;;;;;;;;37.00;32.33;;;;;;;;6491230;39;9544;-58
2024/03/24 18:52:23;;;;;;;;;38.25;36.75;;;;;;;;6491386;39;9556;-59
2024/03/24 18:58:26;;;;;;;;;42.75;36.50;;;;;;;;6491554;31;9094;-56
2024/03/24 19:04:33;;;;;;;;;48.25;39.50;;;;;;;;6491553;31;8916;-60
2024/03/24 19:10:34;;;;;;;;;26.00;25.25;;;;;;;;6490879;31;8876;-57
2024/03/24 19:16:39;;;;;;;;;28.00;25.00;;;;;;;;6491720;39;8868;-59
2024/03/24 19:22:42;;;;;;;;;26.00;26.00;;;;;;;;6491404;39;9542;-59
2024/03/24 19:28:43;;;;;;;;;21.50;19.75;;;;;;;;6491045;46;8896;-58
2024/03/24 19:34:45;;;;;;;;;25.75;25.75;;;;;;;;6491468;39;8943;-58
2024/03/24 19:40:52;;;;;;;;;25.25;25.00;;;;;;;;6491290;31;8923;-57
2024/03/24 19:46:53;;;;;;;;;29.75;27.25;;;;;;;;6491029;31;8884;-57
2024/03/24 19:52:54;;;;;;;;;24.50;24.50;;;;;;;;6490731;39;8935;-59
2024/03/24 19:58:55;;;;;;;;;25.00;22.50;;;;;;;;6491600;31;8990;-59
2024/03/24 20:04:57;;;;;;;;;23.25;23.00;;;;;;;;6490869;39;8876;-58
2024/03/24 20:10:58;;;;;;;;;19.25;19.00;;;;;;;;6489693;39;9757;-58
2024/03/24 20:17:00;;;;;;;;;11.00;11.00;;;;;;;;6490538;39;8888;-56
2024/03/24 20:23:01;;;;;;;;;6.50;6.50;;;;;;;;6490396;46;8880;-56
2024/03/24 20:29:06;;;;;;;;;6.00;6.00;;;;;;;;6491133;39;8911;-58
2024/03/24 20:35:09;;;;;;;;;8.00;6.50;;;;;;;;6490580;39;8871;-57
2024/03/24 20:41:14;;;;;;;;;9.25;8.00;;;;;;;;6490663;46;8961;-57
2024/03/24 20:47:18;;;;;;;;;8.50;7.25;;;;;;;;6491080;39;9456;-58
2024/03/24 20:53:19;;;;;;;;;10.33;7.33;;;;;;;;6489714;39;9539;-57
2024/03/24 20:59:20;;;;;;;;;11.25;7.50;;;;;;;;6490727;39;9631;-59
2024/03/24 21:05:23;;;;;;;;;14.50;13.75;;;;;;;;6490394;46;8963;-58
2024/03/24 21:11:24;;;;;;;;;22.25;21.50;;;;;;;;6490757;39;8922;-58
2024/03/24 21:17:29;;;;;;;;;26.00;24.25;;;;;;;;6490768;39;9047;-58
2024/03/24 21:23:31;;;;;;;;;31.25;26.50;;;;;;;;6490658;39;8871;-57
2024/03/24 21:29:35;;;;;;;;;26.75;25.25;;;;;;;;6489572;46;8872;-57
2024/03/24 21:35:38;;;;;;;;;24.25;21.50;;;;;;;;6490087;39;8991;-59
2024/03/24 21:48:04;;;;;;;;;19.00;19.00;;;;;;;;6490400;39;8868;-58
2024/03/24 21:54:06;;;;;;;;;22.00;22.00;;;;;;;;6489642;39;8934;-57
2024/03/24 22:00:08;;;;;;;;;21.50;19.50;;;;;;;;6489348;47;9059;-58
2024/03/24 22:06:10;;;;;;;;;19.00;18.25;;;;;;;;6489564;31;9032;-59
2024/03/24 22:12:12;;;;;;;;;17.50;14.25;;;;;;;;6491368;39;9518;-57
2024/03/24 22:18:13;;;;;;;;;17.50;14.25;;;;;;;;6491745;39;9031;-58
2024/03/24 22:24:14;;;;;;;;;15.00;13.75;;;;;;;;6491692;39;8918;-56
2024/03/24 22:30:16;;;;;;;;;12.00;11.00;;;;;;;;6492241;46;9022;-57
2024/03/24 22:36:17;;;;;;;;;12.25;12.25;;;;;;;;6491675;39;8967;-57
2024/03/24 22:42:18;;;;;;;;;10.25;10.25;;;;;;;;6491354;46;8885;-57
2024/03/24 22:48:23;;;;;;;;;11.00;11.00;;;;;;;;6491948;31;8865;-56
2024/03/24 22:54:25;;;;;;;;;14.00;12.33;;;;;;;;6491616;39;8840;-56
2024/03/24 23:00:28;;;;;;;;;12.00;11.00;;;;;;;;6491545;46;8968;-56
2024/03/24 23:06:29;;;;;;;;;11.67;10.67;;;;;;;;6492139;31;8974;-57
2024/03/24 23:12:30;;;;;;;;;14.25;12.50;;;;;;;;6491082;46;9074;-56
2024/03/24 23:18:34;;;;;;;;;12.00;12.00;;;;;;;;6491312;39;8907;-58
2024/03/24 23:24:38;;;;;;;;;12.50;11.00;;;;;;;;6491906;39;8896;-56
2024/03/24 23:30:39;;;;;;;;;13.50;13.50;;;;;;;;6491391;39;8956;-55
2024/03/24 23:36:41;;;;;;;;;17.75;13.75;;;;;;;;6491471;46;8907;-55
2024/03/24 23:42:44;;;;;;;;;15.00;13.75;;;;;;;;6491009;46;8919;-57
2024/03/24 23:48:51;;;;;;;;;13.00;12.75;;;;;;;;6491599;39;8899;-57
2024/03/24 23:54:52;;;;;;;;;14.50;14.25;;;;;;;;6491670;31;8883;-56
